createdAt,value
2023-01-13T00:02:15.413Z,85.46
2023-01-13T00:07:18.316Z,85.61
2023-01-13T00:12:21.660Z,85.64
2023-01-13T00:17:24.751Z,85.71
2023-01-13T00:22:27.740Z,85.78
2023-01-13T00:27:30.796Z,85.80
2023-01-13T00:32:33.805Z,86.00
2023-01-13T00:37:38.400Z,86.10
2023-01-13T00:43:00.062Z,86.26
2023-01-13T00:48:03.064Z,86.27
2023-01-13T00:53:05.969Z,86.43
2023-01-13T00:58:08.902Z,86.61
2023-01-13T01:03:12.473Z,86.78
2023-01-13T01:08:15.439Z,86.80
2023-01-13T01:13:18.405Z,86.97
2023-01-13T01:18:21.374Z,87.04
2023-01-13T01:23:24.330Z,87.06
2023-01-13T01:28:27.478Z,87.08
2023-01-13T01:33:30.751Z,87.15
2023-01-13T01:38:34.055Z,87.12
2023-01-13T01:43:59.367Z,87.15
2023-01-13T01:49:07.695Z,87.21
2023-01-13T01:54:15.283Z,87.36
2023-01-13T01:59:18.994Z,87.42
2023-01-13T02:04:32.342Z,87.65
2023-01-13T02:09:36.788Z,87.77
2023-01-13T02:14:41.992Z,88.06
2023-01-13T02:20:14.876Z,88.19
2023-01-13T02:25:39.249Z,88.31
2023-01-13T02:31:11.083Z,88.41
2023-01-13T02:36:24.569Z,88.54
2023-01-13T02:42:32.635Z,88.57
2023-01-13T02:47:41.478Z,88.86
2023-01-13T02:52:59.892Z,89.06
2023-01-13T02:58:07.664Z,89.02
2023-01-13T03:03:10.522Z,89.26
2023-01-13T03:08:34.345Z,89.56
2023-01-13T03:13:58.823Z,89.50
2023-01-13T03:19:31.808Z,89.58
2023-01-13T03:24:42.563Z,89.85
2023-01-13T03:29:59.174Z,89.82
2023-01-13T03:35:13.319Z,89.75
2023-01-13T03:40:23.807Z,90.00
2023-01-13T03:45:27.851Z,90.06
2023-01-13T03:50:40.804Z,90.15
2023-01-13T03:55:52.979Z,90.26
2023-01-13T04:01:07.465Z,90.60
2023-01-13T04:06:38.330Z,90.60
2023-01-13T04:11:53.302Z,90.68
2023-01-13T04:16:57.068Z,90.72
2023-01-13T04:22:00.153Z,90.97
2023-01-13T04:27:04.182Z,90.89
2023-01-13T04:32:06.994Z,91.12
2023-01-13T04:37:09.842Z,91.14
2023-01-13T04:42:13.204Z,91.14
2023-01-13T04:47:16.035Z,91.41
2023-01-13T04:52:18.981Z,91.39
2023-01-13T04:57:21.879Z,91.56
2023-01-13T05:02:24.758Z,91.65
2023-01-13T05:07:27.712Z,91.75
2023-01-13T05:12:49.369Z,91.96
2023-01-13T05:17:52.569Z,92.21
2023-01-13T05:23:14.087Z,92.31
2023-01-13T05:28:17.106Z,92.37
2023-01-13T05:33:20.811Z,92.44
2023-01-13T05:38:23.697Z,92.49
2023-01-13T05:43:27.939Z,92.66
2023-01-13T05:48:38.155Z,92.41
2023-01-13T05:53:41.419Z,92.52
2023-01-13T05:58:44.866Z,92.50
2023-01-13T06:03:47.731Z,92.60
2023-01-13T06:08:50.590Z,92.79
2023-01-13T06:13:53.456Z,92.76
2023-01-13T06:18:56.313Z,92.77
2023-01-13T06:23:59.861Z,92.79
2023-01-13T06:29:02.715Z,92.93
2023-01-13T06:34:13.499Z,93.07
2023-01-13T06:39:22.006Z,93.03
2023-01-13T06:44:25.210Z,93.06
2023-01-13T06:49:28.294Z,93.22
2023-01-13T06:54:31.243Z,93.09
2023-01-13T06:59:35.310Z,93.20
2023-01-13T07:04:38.188Z,93.22
2023-01-13T07:09:41.102Z,93.28
2023-01-13T07:15:02.626Z,93.39
2023-01-13T07:20:06.885Z,93.50
2023-01-13T07:25:11.427Z,93.46
2023-01-13T07:30:14.647Z,93.50
2023-01-13T07:35:21.908Z,93.58
2023-01-13T07:40:24.870Z,93.63
2023-01-13T07:45:27.876Z,93.64
2023-01-13T07:50:30.835Z,93.77
2023-01-13T07:55:33.834Z,93.76
2023-01-13T08:00:38.827Z,93.68
2023-01-13T08:05:41.843Z,93.90
2023-01-13T08:10:45.179Z,93.90
2023-01-13T08:15:58.735Z,93.74
2023-01-13T08:21:05.569Z,93.76
2023-01-13T08:26:14.290Z,93.66
2023-01-13T08:31:17.404Z,93.58
2023-01-13T08:36:20.479Z,93.71
2023-01-13T08:41:41.965Z,93.72
2023-01-13T08:46:44.901Z,93.87
2023-01-13T08:51:48.405Z,93.83
2023-01-13T08:56:51.388Z,93.83
2023-01-13T09:01:54.476Z,93.93
2023-01-13T09:06:57.966Z,93.84
2023-01-13T09:12:19.769Z,93.79
2023-01-13T09:17:25.902Z,93.77
2023-01-13T09:22:28.902Z,93.81
2023-01-13T09:27:31.904Z,93.79
2023-01-13T09:32:35.260Z,93.82
2023-01-13T09:37:40.991Z,93.82
2023-01-13T09:43:11.134Z,93.85
2023-01-13T09:48:52.255Z,93.79
2023-01-13T09:54:05.253Z,93.66
2023-01-13T09:59:12.361Z,93.78
2023-01-13T10:04:16.159Z,93.82
2023-01-13T10:09:27.343Z,93.83
2023-01-13T10:14:57.255Z,93.89
2023-01-13T10:20:18.621Z,93.99
2023-01-13T10:26:02.825Z,93.94
2023-01-13T10:31:14.925Z,93.93
2023-01-13T10:36:23.081Z,93.82
2023-01-13T10:41:27.913Z,93.82
2023-01-13T10:46:35.159Z,93.73
2023-01-13T10:51:37.996Z,93.75
2023-01-13T10:56:46.245Z,93.82
2023-01-13T11:02:19.874Z,93.82
2023-01-13T11:07:40.329Z,93.77
2023-01-13T11:13:19.600Z,93.80
2023-01-13T11:18:37.901Z,93.74
2023-01-13T11:23:50.230Z,93.81
2023-01-13T11:29:18.006Z,93.71
2023-01-13T11:34:40.239Z,93.72
2023-01-13T11:40:04.182Z,93.78
2023-01-13T11:45:44.432Z,93.79
2023-01-13T11:51:15.141Z,93.85
2023-01-13T11:57:08.591Z,93.74
2023-01-13T12:02:52.209Z,93.71
2023-01-13T12:08:11.076Z,93.56
2023-01-13T12:13:24.315Z,93.63
2023-01-13T12:19:10.608Z,93.67
2023-01-13T12:25:07.306Z,93.58
2023-01-13T12:30:41.066Z,93.67
2023-01-13T12:36:07.518Z,93.61
2023-01-13T12:42:26.463Z,93.64
2023-01-13T12:47:40.290Z,93.70
2023-01-13T12:52:45.165Z,93.64
2023-01-13T12:58:06.078Z,93.65
2023-01-13T13:03:15.848Z,93.69
2023-01-13T13:08:51.031Z,93.66
2023-01-13T13:13:54.028Z,93.63
2023-01-13T13:19:18.701Z,93.60
2023-01-13T13:24:21.767Z,93.46
2023-01-13T13:29:57.659Z,93.53
2023-01-13T13:35:06.308Z,93.50
2023-01-13T13:40:29.599Z,93.45
2023-01-13T13:45:51.349Z,93.47
2023-01-13T13:51:02.266Z,93.40
2023-01-13T13:56:17.991Z,93.40
2023-01-13T14:01:30.301Z,93.39
2023-01-13T14:06:34.166Z,93.33
2023-01-13T14:11:37.095Z,93.33
2023-01-13T14:16:41.318Z,93.32
2023-01-13T14:21:48.492Z,93.36
2023-01-13T14:26:53.331Z,93.40
2023-01-13T14:31:56.296Z,93.39
2023-01-13T14:37:00.048Z,93.39
2023-01-13T14:42:03.178Z,93.39
2023-01-13T14:47:19.840Z,93.36
2023-01-13T14:52:25.611Z,93.38
2023-01-13T14:57:39.601Z,93.36
2023-01-13T15:02:57.887Z,93.33
2023-01-13T15:08:05.666Z,93.35
2023-01-13T15:13:24.589Z,93.36
2023-01-13T15:18:29.286Z,93.35
2023-01-13T15:23:32.168Z,93.34
2023-01-13T15:28:35.175Z,93.34
2023-01-13T15:33:38.387Z,93.33
2023-01-13T15:38:43.726Z,93.28
2023-01-13T15:44:05.589Z,93.37
2023-01-13T15:49:27.438Z,93.42
2023-01-13T15:54:30.894Z,93.43
2023-01-13T15:59:33.989Z,93.40
2023-01-13T16:04:36.870Z,93.41
2023-01-13T16:09:39.829Z,93.45
2023-01-13T16:14:42.932Z,93.43
2023-01-13T16:19:46.793Z,93.40
2023-01-13T16:24:49.789Z,93.43
2023-01-13T16:29:53.265Z,93.42
2023-01-13T16:34:56.261Z,93.43
2023-01-13T16:39:59.343Z,93.39
2023-01-13T16:45:08.600Z,93.39
2023-01-13T16:50:23.603Z,93.42
2023-01-13T16:55:28.104Z,93.39
2023-01-13T17:00:32.213Z,93.39
2023-01-13T17:05:39.698Z,93.36
2023-01-13T17:10:42.563Z,93.36
2023-01-13T17:15:46.326Z,93.31
2023-01-13T17:20:49.203Z,93.25
2023-01-13T17:25:54.914Z,93.23
2023-01-13T17:30:57.960Z,93.14
2023-01-13T17:36:01.801Z,93.10
2023-01-13T17:41:05.501Z,93.09
2023-01-13T17:46:11.222Z,93.03
2023-01-13T17:51:16.773Z,92.93
2023-01-13T17:56:19.977Z,92.84
2023-01-13T18:01:23.431Z,92.81
2023-01-13T18:06:27.142Z,92.82
2023-01-13T18:11:30.111Z,92.84
2023-01-13T18:16:33.385Z,92.82
2023-01-13T18:21:55.331Z,92.82
2023-01-13T18:27:17.979Z,92.65
2023-01-13T18:32:26.539Z,92.57
2023-01-13T18:37:29.904Z,92.64
2023-01-13T18:42:51.556Z,92.77
2023-01-13T18:47:58.085Z,92.75
2023-01-13T18:53:02.937Z,92.64
2023-01-13T18:58:06.402Z,92.47
2023-01-13T19:03:14.240Z,92.56
2023-01-13T19:08:17.748Z,92.50
2023-01-13T19:13:22.149Z,92.37
2023-01-13T19:18:27.875Z,92.41
2023-01-13T19:23:32.435Z,92.40
2023-01-13T19:28:40.206Z,92.50
2023-01-13T19:33:43.486Z,92.50
2023-01-13T19:38:46.376Z,92.32
2023-01-13T19:44:08.343Z,92.23
2023-01-13T19:49:11.491Z,92.11
2023-01-13T19:54:14.402Z,91.97
2023-01-13T19:59:22.958Z,91.96
2023-01-13T20:04:33.929Z,91.92
2023-01-13T20:09:37.070Z,92.00
2023-01-13T20:14:41.534Z,91.96
2023-01-13T20:19:44.958Z,91.96
2023-01-13T20:24:52.374Z,92.07
2023-01-13T20:29:55.386Z,92.19
2023-01-13T20:34:58.300Z,92.20
2023-01-13T20:40:03.986Z,92.25
2023-01-13T20:45:07.842Z,92.29
2023-01-13T20:50:11.922Z,92.31
2023-01-13T20:55:15.046Z,92.36
2023-01-13T21:00:19.123Z,92.44
2023-01-13T21:05:22.006Z,92.39
2023-01-13T21:10:24.904Z,92.35
2023-01-13T21:15:28.061Z,92.39
2023-01-13T21:20:33.630Z,92.39
2023-01-13T21:25:40.167Z,92.38
2023-01-13T21:30:44.748Z,92.36
2023-01-13T21:35:47.676Z,92.40
2023-01-13T21:41:02.823Z,92.46
2023-01-13T21:46:33.439Z,92.55
2023-01-13T21:51:36.711Z,92.68
2023-01-13T21:56:39.725Z,92.63
2023-01-13T22:01:57.103Z,92.60
2023-01-13T22:07:06.760Z,92.63
2023-01-13T22:12:09.781Z,92.60
2023-01-13T22:17:15.484Z,92.55
2023-01-13T22:22:19.044Z,92.40
2023-01-13T22:27:29.124Z,92.39
2023-01-13T22:32:37.627Z,92.40
2023-01-13T22:37:41.334Z,92.38
2023-01-13T22:42:44.205Z,92.29
2023-01-13T22:47:48.070Z,92.29
2023-01-13T22:52:50.980Z,92.21
2023-01-13T22:57:54.418Z,92.18
2023-01-13T23:02:57.351Z,92.08
2023-01-13T23:08:00.350Z,92.08
2023-01-13T23:13:03.253Z,92.03
2023-01-13T23:18:06.131Z,92.16
2023-01-13T23:23:09.037Z,92.23
2023-01-13T23:28:11.888Z,92.42
2023-01-13T23:33:15.061Z,92.53
2023-01-13T23:38:17.914Z,92.57
2023-01-13T23:43:21.933Z,92.63
2023-01-13T23:48:24.789Z,92.65
2023-01-13T23:53:35.338Z,92.68
2023-01-13T23:58:38.209Z,92.58
